sensor_id;sensor_type;location;lat;lon;timestamp;temperature;humidity
8953;DHT22;4511;50.890;8.054;2024-01-16T00:00:19;0.30;99.90
8953;DHT22;4511;50.890;8.054;2024-01-16T00:02:46;0.40;99.90
8953;DHT22;4511;50.890;8.054;2024-01-16T00:05:13;0.20;99.90
8953;DHT22;4511;50.890;8.054;2024-01-16T00:07:41;0.20;99.90
8953;DHT22;4511;50.890;8.054;2024-01-16T00:10:08;0.30;99.90
8953;DHT22;4511;50.890;8.054;2024-01-16T00:12:35;0.30;99.90
8953;DHT22;4511;50.890;8.054;2024-01-16T00:15:01;0.30;99.90
8953;DHT22;4511;50.890;8.054;2024-01-16T00:17:28;0.30;99.90
8953;DHT22;4511;50.890;8.054;2024-01-16T00:19:55;0.40;99.90
8953;DHT22;4511;50.890;8.054;2024-01-16T00:22:25;0.40;99.90
8953;DHT22;4511;50.890;8.054;2024-01-16T00:24:53;0.50;99.90
8953;DHT22;4511;50.890;8.054;2024-01-16T00:27:20;0.40;99.90
8953;DHT22;4511;50.890;8.054;2024-01-16T00:29:47;0.40;99.90
8953;DHT22;4511;50.890;8.054;2024-01-16T00:32:14;0.30;99.90
8953;DHT22;4511;50.890;8.054;2024-01-16T00:34:42;0.40;99.90
8953;DHT22;4511;50.890;8.054;2024-01-16T00:37:09;0.40;99.90
8953;DHT22;4511;50.890;8.054;2024-01-16T00:39:36;0.50;99.90
8953;DHT22;4511;50.890;8.054;2024-01-16T00:42:04;0.40;99.90
8953;DHT22;4511;50.890;8.054;2024-01-16T00:44:31;0.50;99.90
8953;DHT22;4511;50.890;8.054;2024-01-16T00:46:58;0.60;99.90
8953;DHT22;4511;50.890;8.054;2024-01-16T00:49:27;0.50;99.90
8953;DHT22;4511;50.890;8.054;2024-01-16T00:51:53;0.50;99.90
8953;DHT22;4511;50.890;8.054;2024-01-16T00:54:20;0.60;99.90
8953;DHT22;4511;50.890;8.054;2024-01-16T00:56:47;0.50;99.90
8953;DHT22;4511;50.890;8.054;2024-01-16T00:59:15;0.50;99.90
8953;DHT22;4511;50.890;8.054;2024-01-16T01:01:41;0.50;99.90
8953;DHT22;4511;50.890;8.054;2024-01-16T01:04:08;0.60;99.90
8953;DHT22;4511;50.890;8.054;2024-01-16T01:06:35;0.50;99.90
8953;DHT22;4511;50.890;8.054;2024-01-16T01:09:02;0.60;99.90
8953;DHT22;4511;50.890;8.054;2024-01-16T01:11:29;0.60;99.90
8953;DHT22;4511;50.890;8.054;2024-01-16T01:13:56;0.70;99.90
8953;DHT22;4511;50.890;8.054;2024-01-16T01:16:24;0.70;99.90
8953;DHT22;4511;50.890;8.054;2024-01-16T01:18:50;0.60;99.90
8953;DHT22;4511;50.890;8.054;2024-01-16T01:21:17;0.60;99.90
8953;DHT22;4511;50.890;8.054;2024-01-16T01:23:44;0.60;99.90
8953;DHT22;4511;50.890;8.054;2024-01-16T01:26:10;0.60;99.90
8953;DHT22;4511;50.890;8.054;2024-01-16T01:28:39;0.50;99.90
8953;DHT22;4511;50.890;8.054;2024-01-16T01:31:07;0.50;99.90
8953;DHT22;4511;50.890;8.054;2024-01-16T01:33:35;0.50;99.90
8953;DHT22;4511;50.890;8.054;2024-01-16T01:36:02;0.50;99.90
8953;DHT22;4511;50.890;8.054;2024-01-16T01:38:29;0.60;99.90
8953;DHT22;4511;50.890;8.054;2024-01-16T01:40:56;0.70;99.90
8953;DHT22;4511;50.890;8.054;2024-01-16T01:43:24;0.70;99.90
8953;DHT22;4511;50.890;8.054;2024-01-16T01:46:02;0.80;99.90
8953;DHT22;4511;50.890;8.054;2024-01-16T01:48:36;0.80;99.90
8953;DHT22;4511;50.890;8.054;2024-01-16T01:51:04;0.90;99.90
8953;DHT22;4511;50.890;8.054;2024-01-16T01:53:31;0.80;99.90
8953;DHT22;4511;50.890;8.054;2024-01-16T01:56:03;0.90;99.90
8953;DHT22;4511;50.890;8.054;2024-01-16T01:58:31;0.90;99.90
8953;DHT22;4511;50.890;8.054;2024-01-16T02:00:59;1.00;99.90
8953;DHT22;4511;50.890;8.054;2024-01-16T02:03:27;1.00;99.90
8953;DHT22;4511;50.890;8.054;2024-01-16T02:05:56;1.00;99.90
8953;DHT22;4511;50.890;8.054;2024-01-16T02:08:23;1.00;99.90
8953;DHT22;4511;50.890;8.054;2024-01-16T02:10:50;0.90;99.90
8953;DHT22;4511;50.890;8.054;2024-01-16T02:13:19;0.80;99.90
8953;DHT22;4511;50.890;8.054;2024-01-16T02:15:49;0.80;1.00
8953;DHT22;4511;50.890;8.054;2024-01-16T02:18:15;0.60;99.90
8953;DHT22;4511;50.890;8.054;2024-01-16T02:20:42;0.70;1.00
8953;DHT22;4511;50.890;8.054;2024-01-16T02:23:14;0.70;99.90
8953;DHT22;4511;50.890;8.054;2024-01-16T02:25:42;0.60;99.90
8953;DHT22;4511;50.890;8.054;2024-01-16T02:28:10;0.60;99.90
8953;DHT22;4511;50.890;8.054;2024-01-16T02:30:36;0.60;16.50
8953;DHT22;4511;50.890;8.054;2024-01-16T02:33:03;0.70;86.70
8953;DHT22;4511;50.890;8.054;2024-01-16T02:35:30;0.60;99.90
8953;DHT22;4511;50.890;8.054;2024-01-16T02:37:57;0.60;99.90
8953;DHT22;4511;50.890;8.054;2024-01-16T02:40:25;0.50;99.90
8953;DHT22;4511;50.890;8.054;2024-01-16T02:42:54;0.60;99.90
8953;DHT22;4511;50.890;8.054;2024-01-16T02:45:20;0.50;99.90
8953;DHT22;4511;50.890;8.054;2024-01-16T02:47:48;0.50;99.90
8953;DHT22;4511;50.890;8.054;2024-01-16T02:50:15;0.50;99.90
8953;DHT22;4511;50.890;8.054;2024-01-16T02:52:41;0.50;99.90
8953;DHT22;4511;50.890;8.054;2024-01-16T02:55:08;0.60;99.90
8953;DHT22;4511;50.890;8.054;2024-01-16T02:57:35;0.60;99.90
8953;DHT22;4511;50.890;8.054;2024-01-16T03:00:04;0.60;99.90
8953;DHT22;4511;50.890;8.054;2024-01-16T03:02:31;0.70;99.90
8953;DHT22;4511;50.890;8.054;2024-01-16T03:04:58;0.70;99.90
8953;DHT22;4511;50.890;8.054;2024-01-16T03:07:24;0.70;99.90
8953;DHT22;4511;50.890;8.054;2024-01-16T03:09:51;0.80;99.90
8953;DHT22;4511;50.890;8.054;2024-01-16T03:12:18;0.70;35.50
8953;DHT22;4511;50.890;8.054;2024-01-16T03:14:44;0.70;99.90
8953;DHT22;4511;50.890;8.054;2024-01-16T03:17:12;0.60;1.00
8953;DHT22;4511;50.890;8.054;2024-01-16T03:19:39;0.50;1.00
8953;DHT22;4511;50.890;8.054;2024-01-16T03:22:06;0.50;1.00
8953;DHT22;4511;50.890;8.054;2024-01-16T03:24:33;0.50;1.00
8953;DHT22;4511;50.890;8.054;2024-01-16T03:27:00;0.50;99.90
8953;DHT22;4511;50.890;8.054;2024-01-16T03:29:26;0.50;99.90
8953;DHT22;4511;50.890;8.054;2024-01-16T03:31:53;0.40;99.90
8953;DHT22;4511;50.890;8.054;2024-01-16T03:34:22;0.40;99.90
8953;DHT22;4511;50.890;8.054;2024-01-16T03:36:48;0.40;99.90
8953;DHT22;4511;50.890;8.054;2024-01-16T03:39:15;0.40;99.90
8953;DHT22;4511;50.890;8.054;2024-01-16T03:41:42;0.30;99.90
8953;DHT22;4511;50.890;8.054;2024-01-16T03:44:09;0.30;99.90
8953;DHT22;4511;50.890;8.054;2024-01-16T03:46:35;0.40;99.90
8953;DHT22;4511;50.890;8.054;2024-01-16T03:49:02;0.40;99.90
8953;DHT22;4511;50.890;8.054;2024-01-16T03:51:30;0.40;99.90
8953;DHT22;4511;50.890;8.054;2024-01-16T03:53:57;0.50;99.90
8953;DHT22;4511;50.890;8.054;2024-01-16T03:56:24;0.30;99.90
8953;DHT22;4511;50.890;8.054;2024-01-16T03:58:50;0.50;99.90
8953;DHT22;4511;50.890;8.054;2024-01-16T04:01:17;0.50;99.90
8953;DHT22;4511;50.890;8.054;2024-01-16T04:03:44;0.50;99.90
8953;DHT22;4511;50.890;8.054;2024-01-16T04:06:15;0.60;99.90
8953;DHT22;4511;50.890;8.054;2024-01-16T04:08:43;0.50;99.90
8953;DHT22;4511;50.890;8.054;2024-01-16T04:11:11;0.50;99.90
8953;DHT22;4511;50.890;8.054;2024-01-16T04:13:38;0.50;99.90
8953;DHT22;4511;50.890;8.054;2024-01-16T04:16:05;0.50;99.90
8953;DHT22;4511;50.890;8.054;2024-01-16T04:18:35;0.40;99.90
8953;DHT22;4511;50.890;8.054;2024-01-16T04:21:03;0.40;99.90
8953;DHT22;4511;50.890;8.054;2024-01-16T04:23:29;0.40;99.90
8953;DHT22;4511;50.890;8.054;2024-01-16T04:25:58;0.40;99.90
8953;DHT22;4511;50.890;8.054;2024-01-16T04:28:25;0.40;99.90
8953;DHT22;4511;50.890;8.054;2024-01-16T04:30:51;0.30;99.90
8953;DHT22;4511;50.890;8.054;2024-01-16T04:33:18;0.40;99.90
8953;DHT22;4511;50.890;8.054;2024-01-16T04:35:45;0.40;99.90
8953;DHT22;4511;50.890;8.054;2024-01-16T04:38:12;0.40;99.90
8953;DHT22;4511;50.890;8.054;2024-01-16T04:40:39;0.40;99.90
8953;DHT22;4511;50.890;8.054;2024-01-16T04:43:07;0.20;99.90
8953;DHT22;4511;50.890;8.054;2024-01-16T04:45:34;0.30;99.90
8953;DHT22;4511;50.890;8.054;2024-01-16T04:48:00;0.20;99.90
8953;DHT22;4511;50.890;8.054;2024-01-16T04:50:27;0.30;99.90
8953;DHT22;4511;50.890;8.054;2024-01-16T04:52:57;0.30;99.90
8953;DHT22;4511;50.890;8.054;2024-01-16T04:55:25;0.40;99.90
8953;DHT22;4511;50.890;8.054;2024-01-16T04:57:52;0.20;99.90
8953;DHT22;4511;50.890;8.054;2024-01-16T05:00:20;0.20;99.90
8953;DHT22;4511;50.890;8.054;2024-01-16T05:02:47;0.30;99.90
8953;DHT22;4511;50.890;8.054;2024-01-16T05:05:14;0.20;99.90
8953;DHT22;4511;50.890;8.054;2024-01-16T05:07:41;0.20;99.90
8953;DHT22;4511;50.890;8.054;2024-01-16T05:10:10;0.10;99.90
8953;DHT22;4511;50.890;8.054;2024-01-16T05:12:38;0.20;99.90
8953;DHT22;4511;50.890;8.054;2024-01-16T05:15:06;0.20;99.90
8953;DHT22;4511;50.890;8.054;2024-01-16T05:17:34;0.10;99.90
8953;DHT22;4511;50.890;8.054;2024-01-16T05:20:02;0.10;99.90
8953;DHT22;4511;50.890;8.054;2024-01-16T05:22:30;0.20;99.90
8953;DHT22;4511;50.890;8.054;2024-01-16T05:24:56;0.20;99.90
8953;DHT22;4511;50.890;8.054;2024-01-16T05:27:23;0.20;99.90
8953;DHT22;4511;50.890;8.054;2024-01-16T05:29:50;0.30;99.90
8953;DHT22;4511;50.890;8.054;2024-01-16T05:32:17;0.30;99.90
8953;DHT22;4511;50.890;8.054;2024-01-16T05:34:45;0.20;99.90
8953;DHT22;4511;50.890;8.054;2024-01-16T05:37:12;0.10;99.90
8953;DHT22;4511;50.890;8.054;2024-01-16T05:39:39;0.10;99.90
8953;DHT22;4511;50.890;8.054;2024-01-16T05:42:06;0.10;99.90
8953;DHT22;4511;50.890;8.054;2024-01-16T05:44:32;0.10;99.90
8953;DHT22;4511;50.890;8.054;2024-01-16T05:46:59;0.20;99.90
8953;DHT22;4511;50.890;8.054;2024-01-16T05:49:26;0.10;99.90
8953;DHT22;4511;50.890;8.054;2024-01-16T05:51:54;0.10;99.90
8953;DHT22;4511;50.890;8.054;2024-01-16T05:54:20;0.20;99.90
8953;DHT22;4511;50.890;8.054;2024-01-16T05:56:47;0.00;99.90
8953;DHT22;4511;50.890;8.054;2024-01-16T05:59:16;0.10;99.90
8953;DHT22;4511;50.890;8.054;2024-01-16T06:01:43;0.10;99.90
8953;DHT22;4511;50.890;8.054;2024-01-16T06:04:09;0.10;99.90
8953;DHT22;4511;50.890;8.054;2024-01-16T06:06:36;0.00;99.90
8953;DHT22;4511;50.890;8.054;2024-01-16T06:09:04;0.10;99.90
8953;DHT22;4511;50.890;8.054;2024-01-16T06:11:31;0.50;99.90
8953;DHT22;4511;50.890;8.054;2024-01-16T06:13:58;0.40;99.90
8953;DHT22;4511;50.890;8.054;2024-01-16T06:16:25;0.40;99.90
8953;DHT22;4511;50.890;8.054;2024-01-16T06:18:52;0.50;99.90
8953;DHT22;4511;50.890;8.054;2024-01-16T06:21:19;0.40;99.90
8953;DHT22;4511;50.890;8.054;2024-01-16T06:23:45;0.40;99.90
8953;DHT22;4511;50.890;8.054;2024-01-16T06:26:14;0.30;99.90
8953;DHT22;4511;50.890;8.054;2024-01-16T06:28:40;0.40;99.90
8953;DHT22;4511;50.890;8.054;2024-01-16T06:31:08;0.40;99.90
8953;DHT22;4511;50.890;8.054;2024-01-16T06:33:35;0.30;99.90
8953;DHT22;4511;50.890;8.054;2024-01-16T06:36:02;0.10;99.90
8953;DHT22;4511;50.890;8.054;2024-01-16T06:38:30;0.20;99.90
8953;DHT22;4511;50.890;8.054;2024-01-16T06:40:57;0.20;99.90
8953;DHT22;4511;50.890;8.054;2024-01-16T06:43:25;0.20;99.90
8953;DHT22;4511;50.890;8.054;2024-01-16T06:45:52;0.10;99.90
8953;DHT22;4511;50.890;8.054;2024-01-16T06:48:18;0.10;99.90
8953;DHT22;4511;50.890;8.054;2024-01-16T06:50:45;0.20;99.90
8953;DHT22;4511;50.890;8.054;2024-01-16T06:53:12;0.30;99.90
8953;DHT22;4511;50.890;8.054;2024-01-16T06:55:38;0.30;99.90
8953;DHT22;4511;50.890;8.054;2024-01-16T06:58:05;0.30;99.90
8953;DHT22;4511;50.890;8.054;2024-01-16T07:00:33;0.70;99.90
8953;DHT22;4511;50.890;8.054;2024-01-16T07:03:00;0.50;99.90
8953;DHT22;4511;50.890;8.054;2024-01-16T07:05:28;0.50;99.90
8953;DHT22;4511;50.890;8.054;2024-01-16T07:07:55;0.40;99.90
8953;DHT22;4511;50.890;8.054;2024-01-16T07:10:22;0.40;99.90
8953;DHT22;4511;50.890;8.054;2024-01-16T07:12:49;0.40;99.90
8953;DHT22;4511;50.890;8.054;2024-01-16T07:15:17;0.30;99.90
8953;DHT22;4511;50.890;8.054;2024-01-16T07:17:45;0.20;99.90
8953;DHT22;4511;50.890;8.054;2024-01-16T07:20:11;0.20;99.90
8953;DHT22;4511;50.890;8.054;2024-01-16T07:22:38;0.30;99.90
8953;DHT22;4511;50.890;8.054;2024-01-16T07:25:06;0.40;99.90
8953;DHT22;4511;50.890;8.054;2024-01-16T07:27:33;0.30;99.90
8953;DHT22;4511;50.890;8.054;2024-01-16T07:30:00;0.20;99.90
8953;DHT22;4511;50.890;8.054;2024-01-16T07:32:27;0.30;99.90
8953;DHT22;4511;50.890;8.054;2024-01-16T07:34:55;0.40;99.90
8953;DHT22;4511;50.890;8.054;2024-01-16T07:37:22;0.30;99.90
8953;DHT22;4511;50.890;8.054;2024-01-16T07:39:49;0.30;99.90
8953;DHT22;4511;50.890;8.054;2024-01-16T07:42:16;0.20;99.90
8953;DHT22;4511;50.890;8.054;2024-01-16T07:44:42;0.30;99.90
8953;DHT22;4511;50.890;8.054;2024-01-16T07:47:09;0.30;99.90
8953;DHT22;4511;50.890;8.054;2024-01-16T07:49:36;0.30;99.90
8953;DHT22;4511;50.890;8.054;2024-01-16T07:52:04;0.30;99.90
8953;DHT22;4511;50.890;8.054;2024-01-16T07:54:32;0.20;99.90
8953;DHT22;4511;50.890;8.054;2024-01-16T07:56:58;0.20;99.90
8953;DHT22;4511;50.890;8.054;2024-01-16T07:59:25;0.10;99.90
8953;DHT22;4511;50.890;8.054;2024-01-16T08:01:52;0.20;99.90
8953;DHT22;4511;50.890;8.054;2024-01-16T08:04:19;0.20;99.90
8953;DHT22;4511;50.890;8.054;2024-01-16T08:06:46;0.10;99.90
8953;DHT22;4511;50.890;8.054;2024-01-16T08:09:14;0.00;99.90
8953;DHT22;4511;50.890;8.054;2024-01-16T08:11:40;0.10;99.90
8953;DHT22;4511;50.890;8.054;2024-01-16T08:14:07;0.20;99.90
8953;DHT22;4511;50.890;8.054;2024-01-16T08:16:34;0.10;99.90
8953;DHT22;4511;50.890;8.054;2024-01-16T08:19:01;0.30;99.90
8953;DHT22;4511;50.890;8.054;2024-01-16T08:21:28;0.10;99.90
8953;DHT22;4511;50.890;8.054;2024-01-16T08:23:55;0.20;99.90
8953;DHT22;4511;50.890;8.054;2024-01-16T08:26:23;0.20;99.90
8953;DHT22;4511;50.890;8.054;2024-01-16T08:28:50;0.30;99.90
8953;DHT22;4511;50.890;8.054;2024-01-16T08:31:17;0.40;99.90
8953;DHT22;4511;50.890;8.054;2024-01-16T08:33:44;0.40;99.90
8953;DHT22;4511;50.890;8.054;2024-01-16T08:36:11;0.40;99.90
8953;DHT22;4511;50.890;8.054;2024-01-16T08:38:38;0.40;99.90
8953;DHT22;4511;50.890;8.054;2024-01-16T08:41:05;0.40;99.90
8953;DHT22;4511;50.890;8.054;2024-01-16T08:43:33;0.40;99.90
8953;DHT22;4511;50.890;8.054;2024-01-16T08:46:00;0.40;99.90
8953;DHT22;4511;50.890;8.054;2024-01-16T08:48:27;0.40;99.90
8953;DHT22;4511;50.890;8.054;2024-01-16T08:50:54;0.40;99.90
8953;DHT22;4511;50.890;8.054;2024-01-16T08:53:20;0.40;99.90
8953;DHT22;4511;50.890;8.054;2024-01-16T08:55:48;0.40;99.90
8953;DHT22;4511;50.890;8.054;2024-01-16T08:58:15;0.30;99.90
8953;DHT22;4511;50.890;8.054;2024-01-16T09:00:43;0.30;99.90
8953;DHT22;4511;50.890;8.054;2024-01-16T09:03:11;0.30;99.90
8953;DHT22;4511;50.890;8.054;2024-01-16T09:05:38;0.30;99.90
8953;DHT22;4511;50.890;8.054;2024-01-16T09:08:05;0.40;99.90
8953;DHT22;4511;50.890;8.054;2024-01-16T09:10:32;0.40;99.90
8953;DHT22;4511;50.890;8.054;2024-01-16T09:12:58;0.30;1.00
8953;DHT22;4511;50.890;8.054;2024-01-16T09:15:25;0.20;76.40
8953;DHT22;4511;50.890;8.054;2024-01-16T09:17:53;0.10;99.90
8953;DHT22;4511;50.890;8.054;2024-01-16T09:20:20;0.20;99.90
8953;DHT22;4511;50.890;8.054;2024-01-16T09:22:46;0.10;99.90
8953;DHT22;4511;50.890;8.054;2024-01-16T09:25:13;0.20;99.90
8953;DHT22;4511;50.890;8.054;2024-01-16T09:27:40;0.30;99.90
8953;DHT22;4511;50.890;8.054;2024-01-16T09:30:07;0.30;99.90
8953;DHT22;4511;50.890;8.054;2024-01-16T09:32:34;0.30;99.90
8953;DHT22;4511;50.890;8.054;2024-01-16T09:35:04;0.10;1.00
8953;DHT22;4511;50.890;8.054;2024-01-16T09:37:33;0.10;1.00
8953;DHT22;4511;50.890;8.054;2024-01-16T09:40:00;0.10;99.90
8953;DHT22;4511;50.890;8.054;2024-01-16T09:42:27;0.30;28.20
8953;DHT22;4511;50.890;8.054;2024-01-16T09:44:55;0.60;1.00
8953;DHT22;4511;50.890;8.054;2024-01-16T09:47:23;0.70;99.90
8953;DHT22;4511;50.890;8.054;2024-01-16T09:49:50;0.80;99.90
8953;DHT22;4511;50.890;8.054;2024-01-16T09:52:20;0.80;1.00
8953;DHT22;4511;50.890;8.054;2024-01-16T09:54:46;0.90;1.00
8953;DHT22;4511;50.890;8.054;2024-01-16T09:57:15;1.10;1.00
8953;DHT22;4511;50.890;8.054;2024-01-16T09:59:46;0.90;99.90
8953;DHT22;4511;50.890;8.054;2024-01-16T10:02:14;0.70;99.90
8953;DHT22;4511;50.890;8.054;2024-01-16T10:04:41;0.80;1.00
8953;DHT22;4511;50.890;8.054;2024-01-16T10:07:10;1.00;99.90
8953;DHT22;4511;50.890;8.054;2024-01-16T10:09:40;1.00;1.00
8953;DHT22;4511;50.890;8.054;2024-01-16T10:12:07;1.00;91.30
8953;DHT22;4511;50.890;8.054;2024-01-16T10:14:36;1.20;96.80
8953;DHT22;4511;50.890;8.054;2024-01-16T10:17:04;1.20;1.00
8953;DHT22;4511;50.890;8.054;2024-01-16T10:19:31;1.20;1.00
8953;DHT22;4511;50.890;8.054;2024-01-16T10:22:01;1.20;1.00
8953;DHT22;4511;50.890;8.054;2024-01-16T10:24:28;1.00;1.00
8953;DHT22;4511;50.890;8.054;2024-01-16T10:26:59;1.10;1.00
8953;DHT22;4511;50.890;8.054;2024-01-16T10:29:28;0.80;1.00
8953;DHT22;4511;50.890;8.054;2024-01-16T10:31:55;0.90;1.00
8953;DHT22;4511;50.890;8.054;2024-01-16T10:34:22;0.90;1.00
8953;DHT22;4511;50.890;8.054;2024-01-16T10:36:57;1.00;1.00
8953;DHT22;4511;50.890;8.054;2024-01-16T10:39:25;0.70;1.00
8953;DHT22;4511;50.890;8.054;2024-01-16T10:41:55;1.00;1.00
8953;DHT22;4511;50.890;8.054;2024-01-16T10:44:24;0.80;1.00
8953;DHT22;4511;50.890;8.054;2024-01-16T10:46:50;0.60;1.00
8953;DHT22;4511;50.890;8.054;2024-01-16T10:49:17;0.70;1.00
8953;DHT22;4511;50.890;8.054;2024-01-16T10:51:44;0.50;1.00
8953;DHT22;4511;50.890;8.054;2024-01-16T10:54:13;0.50;1.00
8953;DHT22;4511;50.890;8.054;2024-01-16T10:56:44;0.50;1.00
8953;DHT22;4511;50.890;8.054;2024-01-16T10:59:18;0.70;1.00
8953;DHT22;4511;50.890;8.054;2024-01-16T11:01:49;0.80;1.00
8953;DHT22;4511;50.890;8.054;2024-01-16T11:04:18;0.80;1.00
8953;DHT22;4511;50.890;8.054;2024-01-16T11:06:47;0.60;1.00
8953;DHT22;4511;50.890;8.054;2024-01-16T11:09:14;0.70;1.00
8953;DHT22;4511;50.890;8.054;2024-01-16T11:11:43;0.80;1.00
8953;DHT22;4511;50.890;8.054;2024-01-16T11:14:11;0.60;1.00
8953;DHT22;4511;50.890;8.054;2024-01-16T11:16:39;0.60;1.00
8953;DHT22;4511;50.890;8.054;2024-01-16T11:19:09;0.60;1.00
8953;DHT22;4511;50.890;8.054;2024-01-16T11:21:37;0.80;1.00
8953;DHT22;4511;50.890;8.054;2024-01-16T11:24:04;0.80;1.00
8953;DHT22;4511;50.890;8.054;2024-01-16T11:26:33;0.90;1.00
8953;DHT22;4511;50.890;8.054;2024-01-16T11:29:35;0.80;1.00
8953;DHT22;4511;50.890;8.054;2024-01-16T11:32:03;0.80;1.00
8953;DHT22;4511;50.890;8.054;2024-01-16T11:34:59;1.00;1.00
8953;DHT22;4511;50.890;8.054;2024-01-16T11:37:27;1.30;1.00
8953;DHT22;4511;50.890;8.054;2024-01-16T11:40:20;1.30;99.90
8953;DHT22;4511;50.890;8.054;2024-01-16T11:42:47;1.60;99.90
8953;DHT22;4511;50.890;8.054;2024-01-16T11:45:47;2.00;99.90
8953;DHT22;4511;50.890;8.054;2024-01-16T11:48:15;2.00;99.90
8953;DHT22;4511;50.890;8.054;2024-01-16T11:50:44;1.60;99.90
8953;DHT22;4511;50.890;8.054;2024-01-16T11:53:10;2.00;99.90
8953;DHT22;4511;50.890;8.054;2024-01-16T11:55:48;2.10;99.90
8953;DHT22;4511;50.890;8.054;2024-01-16T11:58:33;2.10;99.90
8953;DHT22;4511;50.890;8.054;2024-01-16T12:01:05;2.10;99.90
8953;DHT22;4511;50.890;8.054;2024-01-16T12:03:32;2.10;90.10
8953;DHT22;4511;50.890;8.054;2024-01-16T12:06:01;2.00;90.30
8953;DHT22;4511;50.890;8.054;2024-01-16T12:08:31;1.70;91.60
8953;DHT22;4511;50.890;8.054;2024-01-16T12:10:59;1.20;95.60
8953;DHT22;4511;50.890;8.054;2024-01-16T12:13:26;1.10;99.90
8953;DHT22;4511;50.890;8.054;2024-01-16T12:15:59;1.20;99.90
8953;DHT22;4511;50.890;8.054;2024-01-16T12:18:26;1.20;99.90
8953;DHT22;4511;50.890;8.054;2024-01-16T12:20:52;1.30;99.90
8953;DHT22;4511;50.890;8.054;2024-01-16T12:23:20;1.20;99.90
8953;DHT22;4511;50.890;8.054;2024-01-16T12:25:52;1.50;99.90
8953;DHT22;4511;50.890;8.054;2024-01-16T12:28:21;1.70;99.90
8953;DHT22;4511;50.890;8.054;2024-01-16T12:30:50;1.80;99.90
8953;DHT22;4511;50.890;8.054;2024-01-16T12:33:18;1.90;87.10
8953;DHT22;4511;50.890;8.054;2024-01-16T12:35:48;2.00;93.90
8953;DHT22;4511;50.890;8.054;2024-01-16T12:38:15;1.90;59.00
8953;DHT22;4511;50.890;8.054;2024-01-16T12:40:47;1.80;83.00
8953;DHT22;4511;50.890;8.054;2024-01-16T12:43:16;2.00;78.30
8953;DHT22;4511;50.890;8.054;2024-01-16T12:45:44;2.00;58.80
8953;DHT22;4511;50.890;8.054;2024-01-16T12:48:11;2.00;59.40
8953;DHT22;4511;50.890;8.054;2024-01-16T12:50:38;1.90;45.80
8953;DHT22;4511;50.890;8.054;2024-01-16T12:53:05;2.20;50.90
8953;DHT22;4511;50.890;8.054;2024-01-16T12:55:33;2.30;68.70
8953;DHT22;4511;50.890;8.054;2024-01-16T12:58:15;2.80;53.30
8953;DHT22;4511;50.890;8.054;2024-01-16T13:00:42;3.10;45.90
8953;DHT22;4511;50.890;8.054;2024-01-16T13:03:15;3.30;5.60
8953;DHT22;4511;50.890;8.054;2024-01-16T13:05:43;3.30;1.00
8953;DHT22;4511;50.890;8.054;2024-01-16T13:08:16;2.20;1.00
8953;DHT22;4511;50.890;8.054;2024-01-16T13:10:43;2.10;1.00
8953;DHT22;4511;50.890;8.054;2024-01-16T13:13:15;2.10;1.00
8953;DHT22;4511;50.890;8.054;2024-01-16T13:15:44;1.90;1.00
8953;DHT22;4511;50.890;8.054;2024-01-16T13:18:19;1.70;1.00
8953;DHT22;4511;50.890;8.054;2024-01-16T13:20:47;1.70;1.00
8953;DHT22;4511;50.890;8.054;2024-01-16T13:23:14;1.70;1.00
8953;DHT22;4511;50.890;8.054;2024-01-16T13:25:42;1.80;1.00
8953;DHT22;4511;50.890;8.054;2024-01-16T13:28:09;1.40;1.00
8953;DHT22;4511;50.890;8.054;2024-01-16T13:30:37;1.10;1.00
8953;DHT22;4511;50.890;8.054;2024-01-16T13:33:04;1.00;1.00
8953;DHT22;4511;50.890;8.054;2024-01-16T13:35:31;1.10;1.00
8953;DHT22;4511;50.890;8.054;2024-01-16T13:37:58;1.20;1.00
8953;DHT22;4511;50.890;8.054;2024-01-16T13:40:25;1.40;1.00
8953;DHT22;4511;50.890;8.054;2024-01-16T13:42:51;1.60;1.00
8953;DHT22;4511;50.890;8.054;2024-01-16T13:45:18;1.70;1.00
8953;DHT22;4511;50.890;8.054;2024-01-16T13:47:46;1.30;1.00
8953;DHT22;4511;50.890;8.054;2024-01-16T13:50:13;1.40;1.00
8953;DHT22;4511;50.890;8.054;2024-01-16T13:52:40;1.30;1.00
8953;DHT22;4511;50.890;8.054;2024-01-16T13:55:07;1.20;1.00
8953;DHT22;4511;50.890;8.054;2024-01-16T13:57:34;1.20;1.00
8953;DHT22;4511;50.890;8.054;2024-01-16T14:00:02;1.10;1.00
8953;DHT22;4511;50.890;8.054;2024-01-16T14:02:29;1.00;1.00
8953;DHT22;4511;50.890;8.054;2024-01-16T14:04:57;1.20;1.00
8953;DHT22;4511;50.890;8.054;2024-01-16T14:07:24;1.50;1.00
8953;DHT22;4511;50.890;8.054;2024-01-16T14:09:51;1.40;1.00
8953;DHT22;4511;50.890;8.054;2024-01-16T14:12:17;0.90;1.00
8953;DHT22;4511;50.890;8.054;2024-01-16T14:14:44;0.90;1.00
8953;DHT22;4511;50.890;8.054;2024-01-16T14:17:13;1.00;1.00
8953;DHT22;4511;50.890;8.054;2024-01-16T14:19:39;1.10;1.00
8953;DHT22;4511;50.890;8.054;2024-01-16T14:22:07;1.30;1.00
8953;DHT22;4511;50.890;8.054;2024-01-16T14:24:35;1.60;1.00
8953;DHT22;4511;50.890;8.054;2024-01-16T14:27:03;1.40;1.00
8953;DHT22;4511;50.890;8.054;2024-01-16T14:29:30;1.30;1.00
8953;DHT22;4511;50.890;8.054;2024-01-16T14:31:57;1.10;1.00
8953;DHT22;4511;50.890;8.054;2024-01-16T14:34:24;1.10;1.00
8953;DHT22;4511;50.890;8.054;2024-01-16T14:36:51;1.20;1.00
8953;DHT22;4511;50.890;8.054;2024-01-16T14:39:20;1.10;1.00
8953;DHT22;4511;50.890;8.054;2024-01-16T14:41:50;1.10;1.00
8953;DHT22;4511;50.890;8.054;2024-01-16T14:44:17;1.20;1.00
8953;DHT22;4511;50.890;8.054;2024-01-16T14:46:44;1.30;1.00
8953;DHT22;4511;50.890;8.054;2024-01-16T14:49:11;0.90;1.00
8953;DHT22;4511;50.890;8.054;2024-01-16T14:51:38;0.90;1.00
8953;DHT22;4511;50.890;8.054;2024-01-16T14:54:05;0.70;1.00
8953;DHT22;4511;50.890;8.054;2024-01-16T14:56:33;0.80;1.00
8953;DHT22;4511;50.890;8.054;2024-01-16T14:59:00;0.90;1.00
8953;DHT22;4511;50.890;8.054;2024-01-16T15:01:27;0.80;1.00
8953;DHT22;4511;50.890;8.054;2024-01-16T15:03:54;0.70;1.00
8953;DHT22;4511;50.890;8.054;2024-01-16T15:06:21;0.70;1.00
8953;DHT22;4511;50.890;8.054;2024-01-16T15:08:48;0.70;1.00
8953;DHT22;4511;50.890;8.054;2024-01-16T15:11:14;0.70;1.00
8953;DHT22;4511;50.890;8.054;2024-01-16T15:13:44;0.80;1.00
8953;DHT22;4511;50.890;8.054;2024-01-16T15:16:11;0.80;1.00
8953;DHT22;4511;50.890;8.054;2024-01-16T15:18:38;0.90;1.00
8953;DHT22;4511;50.890;8.054;2024-01-16T15:21:04;1.30;99.90
8953;DHT22;4511;50.890;8.054;2024-01-16T15:23:31;1.80;1.00
8953;DHT22;4511;50.890;8.054;2024-01-16T15:25:58;1.60;99.90
8953;DHT22;4511;50.890;8.054;2024-01-16T15:28:28;1.40;1.00
8953;DHT22;4511;50.890;8.054;2024-01-16T15:30:56;1.30;99.90
8953;DHT22;4511;50.890;8.054;2024-01-16T15:33:23;1.20;19.00
8953;DHT22;4511;50.890;8.054;2024-01-16T15:35:50;1.10;79.60
8953;DHT22;4511;50.890;8.054;2024-01-16T15:38:17;1.00;1.00
8953;DHT22;4511;50.890;8.054;2024-01-16T15:40:43;1.00;99.90
8953;DHT22;4511;50.890;8.054;2024-01-16T15:43:10;0.90;1.00
8953;DHT22;4511;50.890;8.054;2024-01-16T15:45:37;0.90;1.00
8953;DHT22;4511;50.890;8.054;2024-01-16T15:48:05;0.80;1.00
8953;DHT22;4511;50.890;8.054;2024-01-16T15:50:33;0.80;1.00
8953;DHT22;4511;50.890;8.054;2024-01-16T15:53:00;0.80;1.00
8953;DHT22;4511;50.890;8.054;2024-01-16T15:55:26;0.60;1.00
8953;DHT22;4511;50.890;8.054;2024-01-16T15:57:53;0.60;1.00
8953;DHT22;4511;50.890;8.054;2024-01-16T16:00:20;0.50;1.00
8953;DHT22;4511;50.890;8.054;2024-01-16T16:02:48;0.50;1.00
8953;DHT22;4511;50.890;8.054;2024-01-16T16:05:16;0.50;1.00
8953;DHT22;4511;50.890;8.054;2024-01-16T16:07:44;0.50;1.00
8953;DHT22;4511;50.890;8.054;2024-01-16T16:10:11;0.40;1.00
8953;DHT22;4511;50.890;8.054;2024-01-16T16:12:38;0.30;1.00
8953;DHT22;4511;50.890;8.054;2024-01-16T16:15:05;0.30;1.00
8953;DHT22;4511;50.890;8.054;2024-01-16T16:17:32;0.10;1.00
8953;DHT22;4511;50.890;8.054;2024-01-16T16:19:58;0.00;1.00
8953;DHT22;4511;50.890;8.054;2024-01-16T16:22:26;0.00;1.00
8953;DHT22;4511;50.890;8.054;2024-01-16T16:24:53;0.00;1.00